Orland Park, Illinois
Current Conditions -  °F | °C
As of 9:35 PM on Friday 19 Dec 2014 (Local Time) from KLOT Reporting Station
Overcast Overcast  
Wind Chill: 31°   Ceiling: 2300
Heat Index: 31°   Visibility: 10mi
Dew Point: 26°   Wind: 3mph
Humidity: 83%   Direction: 190°S
Pressure: 30.27"   Gusts: NA
Location:  41.62°N, 87.85°W
Report Text: KLOT 200335Z AUTO 19003KT 10SM OVC023 M01/M03 A3027 RMK AO2 T10081033
Loading
Personal Weather Stations






























Interactive Weather Map New forecast layout! Learn more

10-Day Weather Forecast

Advertisements
Track Severe Weather on mobile